createdAt,value
2022-08-19T00:02:01.895Z,10.63
2022-08-19T00:04:37.335Z,10.57
2022-08-19T00:07:06.593Z,11.55
2022-08-19T00:09:33.316Z,12.85
2022-08-19T00:12:00.536Z,11.27
2022-08-19T00:14:28.302Z,9.57
2022-08-19T00:16:55.816Z,10.15
2022-08-19T00:19:24.099Z,11.65
2022-08-19T00:21:52.634Z,10.32
2022-08-19T00:24:20.837Z,11.00
2022-08-19T00:26:47.626Z,10.20
2022-08-19T00:29:18.714Z,8.82
2022-08-19T00:31:46.172Z,11.82
2022-08-19T00:34:14.829Z,10.05
2022-08-19T00:36:42.577Z,11.07
2022-08-19T00:39:10.274Z,12.30
2022-08-19T00:41:37.339Z,11.98
2022-08-19T00:44:13.658Z,9.27
2022-08-19T00:46:43.955Z,9.88
2022-08-19T00:49:20.490Z,11.52
2022-08-19T00:51:51.332Z,11.30
2022-08-19T00:54:19.413Z,11.00
2022-08-19T00:56:55.684Z,8.90
2022-08-19T01:00:00.833Z,14.88
2022-08-19T01:02:10.202Z,11.65
2022-08-19T01:04:36.780Z,11.15
2022-08-19T01:07:03.698Z,11.90
2022-08-19T01:09:31.925Z,10.45
2022-08-19T01:11:58.823Z,11.40
2022-08-19T01:14:26.341Z,10.20
2022-08-19T01:16:56.596Z,10.88
2022-08-19T01:19:29.869Z,9.73
2022-08-19T01:22:04.092Z,12.52
2022-08-19T01:24:45.188Z,10.50
2022-08-19T01:27:17.092Z,10.23
2022-08-19T01:29:45.820Z,10.43
2022-08-19T01:32:32.078Z,10.30
2022-08-19T01:35:02.980Z,11.20
2022-08-19T01:37:31.506Z,11.35
2022-08-19T01:39:58.511Z,11.57
2022-08-19T01:42:30.075Z,11.95
2022-08-19T01:44:58.156Z,11.18
2022-08-19T01:47:25.339Z,15.25
2022-08-19T01:49:52.091Z,13.50
2022-08-19T01:52:19.001Z,12.10
2022-08-19T01:54:45.644Z,12.63
2022-08-19T01:57:15.461Z,14.05
2022-08-19T01:59:44.573Z,14.38
2022-08-19T02:02:12.189Z,12.60
2022-08-19T02:04:39.873Z,12.25
2022-08-19T02:07:09.112Z,13.25
2022-08-19T02:09:36.428Z,13.60
2022-08-19T02:12:03.251Z,11.70
2022-08-19T02:14:29.839Z,11.50
2022-08-19T02:16:57.481Z,12.00
2022-08-19T02:19:24.047Z,12.75
2022-08-19T02:21:50.646Z,10.50
2022-08-19T02:24:17.323Z,11.30
2022-08-19T02:26:43.979Z,10.02
2022-08-19T02:29:10.605Z,11.43
2022-08-19T02:31:37.230Z,12.95
2022-08-19T02:34:04.154Z,13.45
2022-08-19T02:36:31.531Z,11.13
2022-08-19T02:38:58.155Z,14.65
2022-08-19T02:41:29.055Z,13.45
2022-08-19T02:44:26.622Z,11.70
2022-08-19T02:46:48.514Z,11.00
2022-08-19T02:49:17.587Z,11.73
2022-08-19T02:51:47.153Z,13.07
2022-08-19T02:54:15.081Z,12.02
2022-08-19T02:56:44.446Z,11.57
2022-08-19T02:59:12.137Z,11.25
2022-08-19T03:01:41.624Z,11.52
2022-08-19T03:04:10.416Z,11.90
2022-08-19T03:06:39.551Z,9.88
2022-08-19T03:09:06.259Z,13.52
2022-08-19T03:11:33.759Z,14.18
2022-08-19T03:14:03.002Z,13.48
2022-08-19T03:16:33.714Z,11.80
2022-08-19T03:19:02.044Z,12.40
2022-08-19T03:21:31.952Z,12.07
2022-08-19T03:24:01.508Z,13.13
2022-08-19T03:26:28.971Z,12.80
2022-08-19T03:28:58.666Z,11.77
2022-08-19T03:31:43.632Z,11.25
2022-08-19T03:34:21.632Z,13.10
2022-08-19T03:36:48.715Z,13.63
2022-08-19T03:39:16.571Z,10.20
2022-08-19T03:41:46.533Z,11.15
2022-08-19T03:44:19.120Z,10.60
2022-08-19T03:46:52.369Z,11.25
2022-08-19T03:49:20.567Z,10.70
2022-08-19T03:51:49.423Z,12.00
2022-08-19T03:54:23.963Z,10.45
2022-08-19T03:56:53.045Z,9.90
2022-08-19T03:59:26.117Z,10.20
2022-08-19T04:01:57.765Z,9.07
2022-08-19T04:04:25.601Z,10.02
2022-08-19T04:06:56.615Z,10.57
2022-08-19T04:09:23.268Z,9.82
2022-08-19T04:11:54.781Z,10.32
2022-08-19T04:14:26.527Z,10.73
2022-08-19T04:16:53.990Z,10.43
2022-08-19T04:19:21.403Z,11.68
2022-08-19T04:21:51.067Z,9.80
2022-08-19T04:24:19.188Z,11.10
2022-08-19T04:26:46.952Z,11.35
2022-08-19T04:29:32.075Z,12.13
2022-08-19T04:31:59.782Z,12.65
2022-08-19T04:34:28.347Z,11.40
2022-08-19T04:36:58.152Z,11.13
2022-08-19T04:39:49.566Z,10.13
2022-08-19T04:42:36.856Z,10.00
2022-08-19T04:45:05.367Z,9.40
2022-08-19T04:47:48.315Z,10.85
2022-08-19T04:50:20.192Z,10.95
2022-08-19T04:52:47.121Z,10.13
2022-08-19T04:55:14.722Z,12.65
2022-08-19T04:57:41.573Z,12.45
2022-08-19T05:00:10.251Z,10.95
2022-08-19T05:02:37.476Z,11.27
2022-08-19T05:05:04.592Z,11.30
2022-08-19T05:07:31.862Z,12.75
2022-08-19T05:09:59.305Z,12.35
2022-08-19T05:12:29.171Z,9.98
2022-08-19T05:14:58.159Z,11.38
2022-08-19T05:17:28.797Z,11.02
2022-08-19T05:20:15.750Z,11.35
2022-08-19T05:22:45.204Z,10.90
2022-08-19T05:25:15.159Z,10.68
2022-08-19T05:27:43.103Z,12.40
2022-08-19T05:30:10.682Z,12.15
2022-08-19T05:32:37.691Z,11.35
2022-08-19T05:35:06.088Z,13.23
2022-08-19T05:37:32.793Z,13.40
2022-08-19T05:39:59.463Z,14.05
2022-08-19T05:42:27.528Z,14.25
2022-08-19T05:44:54.534Z,12.07
2022-08-19T05:47:21.163Z,11.15
2022-08-19T05:49:51.151Z,11.32
2022-08-19T05:52:25.869Z,15.15
2022-08-19T05:54:56.111Z,12.77
2022-08-19T05:57:24.478Z,11.13
2022-08-19T05:59:57.899Z,12.00
2022-08-19T06:02:26.936Z,11.10
2022-08-19T06:04:53.726Z,11.30
2022-08-19T06:07:21.462Z,11.52
2022-08-19T06:09:59.003Z,10.63
2022-08-19T06:12:31.696Z,10.30
2022-08-19T06:15:00.786Z,10.48
2022-08-19T06:17:31.478Z,9.82
2022-08-19T06:19:59.690Z,9.80
2022-08-19T06:22:27.366Z,9.95
2022-08-19T06:24:55.081Z,9.90
2022-08-19T06:27:22.449Z,9.75
2022-08-19T06:29:49.331Z,9.95
2022-08-19T06:32:17.454Z,9.85
2022-08-19T06:34:44.167Z,9.80
2022-08-19T06:37:12.632Z,8.80
2022-08-19T06:39:41.920Z,7.97
2022-08-19T06:42:12.319Z,9.63
2022-08-19T06:44:43.120Z,8.00
2022-08-19T06:47:14.721Z,8.85
2022-08-19T06:49:50.437Z,6.80
2022-08-19T06:52:17.144Z,7.93
2022-08-19T06:54:55.986Z,6.60
2022-08-19T06:57:27.683Z,6.32
2022-08-19T06:59:54.350Z,6.80
2022-08-19T07:02:21.965Z,6.03
2022-08-19T07:04:52.565Z,6.15
2022-08-19T07:07:22.277Z,4.95
2022-08-19T07:09:58.313Z,5.57
2022-08-19T07:12:30.316Z,6.07
2022-08-19T07:14:58.846Z,5.95
2022-08-19T07:17:26.662Z,6.45
2022-08-19T07:19:54.548Z,5.57
2022-08-19T07:22:23.819Z,5.95
2022-08-19T07:24:51.982Z,6.65
2022-08-19T07:27:24.470Z,5.10
2022-08-19T07:29:57.079Z,6.13
2022-08-19T07:32:27.541Z,5.38
2022-08-19T07:34:55.335Z,7.55
2022-08-19T07:37:23.521Z,7.20
2022-08-19T07:39:50.190Z,7.43
2022-08-19T07:42:21.832Z,7.40
2022-08-19T07:44:50.700Z,9.32
2022-08-19T07:47:48.306Z,9.27
2022-08-19T07:50:09.268Z,8.00
2022-08-19T07:52:39.660Z,10.73
2022-08-19T07:55:39.821Z,9.00
2022-08-19T07:57:56.050Z,10.93
2022-08-19T08:00:24.287Z,9.40
2022-08-19T08:02:51.620Z,9.15
2022-08-19T08:05:39.670Z,10.18
2022-08-19T08:08:27.911Z,9.70
2022-08-19T08:10:57.029Z,8.93
2022-08-19T08:13:25.651Z,9.25
2022-08-19T08:15:54.593Z,9.85
2022-08-19T08:18:22.819Z,11.43
2022-08-19T08:20:55.352Z,9.88
2022-08-19T08:23:29.581Z,10.57
2022-08-19T08:25:59.090Z,9.60
2022-08-19T08:28:29.650Z,9.70
2022-08-19T08:30:58.358Z,9.55
2022-08-19T08:33:32.664Z,10.30
2022-08-19T08:36:03.737Z,10.63
2022-08-19T08:38:38.768Z,10.80
2022-08-19T08:41:34.892Z,10.85
2022-08-19T08:44:05.168Z,8.80
2022-08-19T08:46:46.848Z,9.85
2022-08-19T08:49:13.441Z,11.15
2022-08-19T08:51:45.125Z,9.88
2022-08-19T08:54:18.988Z,8.90
2022-08-19T08:56:46.935Z,8.80
2022-08-19T08:59:26.784Z,7.90
2022-08-19T09:01:53.590Z,8.43
2022-08-19T09:04:20.684Z,9.15
2022-08-19T09:07:33.899Z,8.90
2022-08-19T09:10:31.178Z,9.63
2022-08-19T09:12:57.840Z,14.48
2022-08-19T09:15:36.681Z,9.18
2022-08-19T09:18:07.199Z,8.50
2022-08-19T09:20:34.413Z,8.60
2022-08-19T09:23:01.344Z,9.68
2022-08-19T09:25:29.635Z,9.82
2022-08-19T09:28:02.551Z,10.68
2022-08-19T09:30:33.720Z,9.32
2022-08-19T09:33:00.403Z,9.40
2022-08-19T09:35:29.825Z,7.88
2022-08-19T09:37:59.710Z,8.45
2022-08-19T09:40:30.293Z,8.65
2022-08-19T09:42:58.698Z,7.45
2022-08-19T09:45:25.346Z,7.15
2022-08-19T09:47:54.807Z,8.20
2022-08-19T09:50:23.650Z,8.40
2022-08-19T09:52:55.280Z,7.53
2022-08-19T09:55:31.488Z,8.18
2022-08-19T09:58:02.398Z,8.15
2022-08-19T10:00:29.314Z,7.00
2022-08-19T10:02:55.891Z,7.55
2022-08-19T10:05:42.170Z,8.63
2022-08-19T10:08:13.679Z,8.55
2022-08-19T10:10:46.719Z,7.43
2022-08-19T10:13:18.503Z,7.35
2022-08-19T10:15:48.161Z,7.60
2022-08-19T10:18:19.235Z,6.82
2022-08-19T10:20:51.334Z,7.70
2022-08-19T10:23:21.028Z,7.07
2022-08-19T10:25:48.796Z,6.15
2022-08-19T10:28:15.453Z,6.43
2022-08-19T10:30:42.963Z,7.47
2022-08-19T10:33:10.972Z,7.30
2022-08-19T10:35:42.588Z,6.63
2022-08-19T10:38:32.441Z,6.07
2022-08-19T10:41:12.098Z,6.97
2022-08-19T10:43:39.381Z,6.40
2022-08-19T10:46:14.182Z,6.50
2022-08-19T10:48:45.331Z,6.03
2022-08-19T10:51:31.985Z,6.95
2022-08-19T10:53:59.786Z,6.30
2022-08-19T10:56:46.378Z,5.78
2022-08-19T10:59:14.868Z,6.28
2022-08-19T11:01:43.759Z,6.25
2022-08-19T11:04:14.626Z,7.28
2022-08-19T11:06:44.501Z,6.15
2022-08-19T11:09:12.382Z,5.95
2022-08-19T11:11:42.534Z,7.20
2022-08-19T11:14:15.037Z,6.07
2022-08-19T11:16:43.336Z,6.35
2022-08-19T11:19:12.373Z,6.32
2022-08-19T11:21:45.364Z,6.32
2022-08-19T11:24:21.329Z,6.93
2022-08-19T11:26:50.364Z,7.15
2022-08-19T11:29:20.197Z,7.35
2022-08-19T11:31:49.509Z,6.57
2022-08-19T11:34:21.009Z,6.70
2022-08-19T11:36:49.125Z,6.53
2022-08-19T11:39:17.914Z,6.22
2022-08-19T11:41:44.837Z,6.70
2022-08-19T11:44:11.650Z,6.47
2022-08-19T11:46:38.998Z,6.28
2022-08-19T11:49:13.201Z,6.95
2022-08-19T11:51:43.066Z,8.27
2022-08-19T11:54:10.474Z,7.30
2022-08-19T11:56:38.520Z,6.38
2022-08-19T11:59:05.489Z,6.65
2022-08-19T12:01:32.438Z,7.07
2022-08-19T12:03:59.351Z,6.97
2022-08-19T12:06:29.708Z,7.22
2022-08-19T12:08:57.988Z,8.05
2022-08-19T12:11:25.236Z,7.40
2022-08-19T12:13:51.881Z,7.50
2022-08-19T12:16:21.147Z,7.70
2022-08-19T12:18:48.189Z,7.60
2022-08-19T12:21:23.913Z,9.07
2022-08-19T12:23:55.669Z,8.75
2022-08-19T12:26:23.075Z,9.77
2022-08-19T12:28:50.088Z,8.00
2022-08-19T12:31:17.604Z,7.78
2022-08-19T12:33:44.643Z,8.25
2022-08-19T12:36:13.526Z,9.40
2022-08-19T12:38:44.017Z,9.68
2022-08-19T12:41:16.424Z,9.55
2022-08-19T12:43:43.234Z,10.55
2022-08-19T12:46:10.175Z,8.45
2022-08-19T12:48:40.270Z,9.05
2022-08-19T12:51:10.339Z,8.10
2022-08-19T12:53:39.250Z,8.63
2022-08-19T12:56:07.630Z,9.55
2022-08-19T12:58:39.844Z,9.10
2022-08-19T13:01:13.808Z,8.05
2022-08-19T13:03:41.657Z,8.27
2022-08-19T13:06:09.518Z,8.50
2022-08-19T13:08:36.711Z,9.07
2022-08-19T13:11:18.456Z,7.78
2022-08-19T13:13:46.918Z,8.77
2022-08-19T13:16:14.263Z,8.10
2022-08-19T13:18:42.745Z,7.72
2022-08-19T13:21:12.710Z,7.15
2022-08-19T13:23:39.469Z,7.57
2022-08-19T13:26:08.019Z,8.07
2022-08-19T13:28:54.229Z,7.38
2022-08-19T13:31:41.135Z,6.40
2022-08-19T13:34:08.203Z,6.75
2022-08-19T13:36:35.906Z,7.40
2022-08-19T13:39:02.906Z,6.57
2022-08-19T13:41:29.622Z,6.47
2022-08-19T13:43:56.245Z,5.65
2022-08-19T13:46:22.944Z,5.93
2022-08-19T13:48:49.601Z,5.65
2022-08-19T13:51:17.657Z,5.93
2022-08-19T13:53:48.074Z,6.10
2022-08-19T13:56:17.854Z,6.10
2022-08-19T13:58:44.646Z,7.28
2022-08-19T14:01:11.630Z,5.90
2022-08-19T14:03:39.486Z,5.30
2022-08-19T14:06:06.296Z,6.47
2022-08-19T14:08:33.682Z,7.00
2022-08-19T14:11:00.645Z,5.63
2022-08-19T14:13:34.904Z,6.47
2022-08-19T14:16:01.633Z,7.97
2022-08-19T14:18:28.692Z,7.75
2022-08-19T14:20:57.846Z,6.60
2022-08-19T14:23:25.725Z,5.80
2022-08-19T14:25:52.361Z,6.65
2022-08-19T14:28:19.151Z,6.00
2022-08-19T14:30:45.771Z,6.32
2022-08-19T14:33:12.647Z,6.80
2022-08-19T14:35:39.607Z,6.57
2022-08-19T14:38:07.702Z,7.82
2022-08-19T14:40:35.828Z,7.72
2022-08-19T14:43:05.628Z,7.65
2022-08-19T14:45:35.407Z,6.60
2022-08-19T14:48:03.932Z,7.53
2022-08-19T14:50:30.538Z,7.57
2022-08-19T14:53:09.390Z,8.50
2022-08-19T14:55:42.947Z,7.22
2022-08-19T14:58:09.994Z,9.02
2022-08-19T15:00:58.099Z,6.45
2022-08-19T15:03:25.097Z,7.95
2022-08-19T15:05:51.749Z,7.57
2022-08-19T15:08:18.484Z,7.47
2022-08-19T15:10:45.145Z,6.05
2022-08-19T15:13:11.763Z,7.28
2022-08-19T15:15:40.056Z,5.22
2022-08-19T15:18:06.658Z,5.82
2022-08-19T15:20:33.354Z,4.82
2022-08-19T15:23:00.210Z,5.13
2022-08-19T15:25:28.022Z,4.60
2022-08-19T15:27:55.035Z,3.88
2022-08-19T15:30:28.231Z,4.45
2022-08-19T15:32:56.443Z,4.50
2022-08-19T15:35:24.621Z,4.35
2022-08-19T15:37:52.907Z,4.68
2022-08-19T15:40:21.868Z,4.53
2022-08-19T15:42:49.940Z,5.18
2022-08-19T15:45:19.638Z,5.60
2022-08-19T15:47:46.845Z,4.47
2022-08-19T15:50:17.453Z,5.03
2022-08-19T15:52:50.886Z,4.30
2022-08-19T15:55:33.267Z,4.55
2022-08-19T15:58:28.212Z,4.88
2022-08-19T16:01:21.371Z,4.65
2022-08-19T16:04:15.181Z,5.38
2022-08-19T16:06:54.818Z,6.28
2022-08-19T16:09:29.334Z,5.30
2022-08-19T16:12:02.435Z,5.22
2022-08-19T16:14:31.799Z,5.15
2022-08-19T16:16:58.688Z,5.53
2022-08-19T16:19:25.685Z,6.82
2022-08-19T16:21:54.281Z,6.47
2022-08-19T16:24:24.186Z,6.60
2022-08-19T16:26:50.987Z,6.70
2022-08-19T16:29:22.084Z,6.40
2022-08-19T16:32:02.917Z,7.05
2022-08-19T16:34:30.741Z,6.80
2022-08-19T16:36:57.477Z,6.88
2022-08-19T16:39:24.246Z,6.95
2022-08-19T16:41:51.702Z,6.72
2022-08-19T16:44:21.146Z,8.50
2022-08-19T16:46:57.303Z,7.20
2022-08-19T16:49:54.165Z,6.47
2022-08-19T16:52:19.198Z,8.17
2022-08-19T16:54:46.278Z,7.45
2022-08-19T16:57:13.124Z,6.07
2022-08-19T16:59:48.176Z,7.05
2022-08-19T17:02:20.500Z,7.25
2022-08-19T17:04:58.263Z,7.57
2022-08-19T17:07:33.315Z,7.50
2022-08-19T17:10:02.204Z,5.55
2022-08-19T17:12:32.218Z,6.40
2022-08-19T17:15:01.548Z,5.95
2022-08-19T17:17:30.096Z,5.95
2022-08-19T17:20:01.227Z,6.53
2022-08-19T17:22:28.792Z,6.35
2022-08-19T17:24:56.334Z,6.78
2022-08-19T17:27:31.364Z,6.53
2022-08-19T17:29:59.956Z,7.57
2022-08-19T17:32:27.316Z,7.10
2022-08-19T17:34:57.264Z,7.80
2022-08-19T17:37:23.892Z,8.98
2022-08-19T17:39:50.569Z,8.90
2022-08-19T17:42:17.285Z,8.45
2022-08-19T17:44:44.780Z,8.48
2022-08-19T17:47:17.258Z,9.02
2022-08-19T17:49:43.904Z,8.57
2022-08-19T17:52:11.907Z,9.20
2022-08-19T17:54:38.964Z,7.88
2022-08-19T17:57:05.652Z,8.63
2022-08-19T17:59:32.666Z,7.80
2022-08-19T18:01:59.631Z,9.27
2022-08-19T18:04:29.882Z,8.00
2022-08-19T18:06:57.387Z,7.88
2022-08-19T18:09:38.749Z,8.27
2022-08-19T18:12:14.190Z,8.82
2022-08-19T18:14:41.344Z,9.85
2022-08-19T18:17:13.175Z,8.73
2022-08-19T18:19:43.261Z,9.45
2022-08-19T18:22:13.294Z,9.83
2022-08-19T18:24:42.258Z,8.30
2022-08-19T18:27:10.165Z,8.88
2022-08-19T18:29:38.454Z,9.23
2022-08-19T18:32:06.454Z,9.10
2022-08-19T18:34:36.747Z,10.63
2022-08-19T18:37:03.574Z,8.05
2022-08-19T18:39:49.311Z,8.93
2022-08-19T18:42:35.398Z,7.80
2022-08-19T18:45:20.806Z,9.52
2022-08-19T18:48:06.125Z,9.20
2022-08-19T18:50:34.386Z,10.90
2022-08-19T18:53:01.869Z,11.20
2022-08-19T18:55:28.910Z,10.73
2022-08-19T18:57:57.558Z,10.48
2022-08-19T19:00:24.190Z,11.98
2022-08-19T19:02:51.049Z,10.80
2022-08-19T19:05:17.690Z,10.65
2022-08-19T19:07:44.292Z,10.57
2022-08-19T19:10:10.957Z,11.02
2022-08-19T19:12:42.034Z,10.55
2022-08-19T19:15:09.152Z,12.20
2022-08-19T19:17:35.930Z,11.82
2022-08-19T19:20:03.272Z,12.45
2022-08-19T19:22:30.929Z,13.82
2022-08-19T19:24:59.375Z,12.25
2022-08-19T19:27:26.171Z,12.98
2022-08-19T19:29:53.095Z,13.73
2022-08-19T19:32:27.023Z,15.27
2022-08-19T19:34:53.917Z,12.70
2022-08-19T19:37:21.112Z,12.90
2022-08-19T19:39:48.263Z,11.48
2022-08-19T19:42:21.521Z,12.00
2022-08-19T19:44:54.568Z,11.27
2022-08-19T19:47:21.687Z,11.05
2022-08-19T19:50:13.928Z,11.18
2022-08-19T19:52:38.843Z,11.07
2022-08-19T19:55:06.490Z,12.40
2022-08-19T19:57:33.161Z,12.43
2022-08-19T20:00:00.527Z,10.68
2022-08-19T20:02:27.287Z,10.02
2022-08-19T20:04:57.187Z,10.82
2022-08-19T20:07:46.829Z,12.65
2022-08-19T20:10:14.062Z,10.45
2022-08-19T20:12:40.679Z,8.90
2022-08-19T20:15:08.260Z,10.07
2022-08-19T20:17:36.615Z,10.40
2022-08-19T20:20:03.618Z,11.95
2022-08-19T20:22:33.788Z,9.13
2022-08-19T20:25:01.291Z,9.30
2022-08-19T20:27:31.418Z,8.77
2022-08-19T20:30:17.676Z,11.60
2022-08-19T20:32:47.755Z,8.98
2022-08-19T20:35:18.421Z,9.88
2022-08-19T20:37:45.121Z,8.30
2022-08-19T20:40:16.430Z,9.82
2022-08-19T20:42:48.103Z,10.60
2022-08-19T20:45:32.238Z,7.80
2022-08-19T20:48:03.108Z,10.13
2022-08-19T20:50:30.671Z,8.40
2022-08-19T20:52:57.600Z,8.10
2022-08-19T20:55:25.010Z,10.18
2022-08-19T20:57:51.826Z,7.82
2022-08-19T21:00:19.036Z,7.43
2022-08-19T21:02:47.005Z,8.40
2022-08-19T21:05:13.929Z,8.32
2022-08-19T21:07:40.863Z,7.68
2022-08-19T21:10:08.007Z,8.23
2022-08-19T21:12:34.887Z,7.50
2022-08-19T21:15:01.478Z,6.90
2022-08-19T21:17:28.083Z,7.97
2022-08-19T21:19:54.701Z,8.10
2022-08-19T21:22:22.419Z,6.47
2022-08-19T21:24:49.060Z,5.93
2022-08-19T21:27:15.815Z,7.07
2022-08-19T21:29:42.663Z,6.22
2022-08-19T21:32:14.545Z,6.03
2022-08-19T21:34:43.937Z,6.82
2022-08-19T21:37:25.051Z,6.03
2022-08-19T21:39:54.084Z,6.85
2022-08-19T21:42:22.384Z,5.68
2022-08-19T21:44:49.111Z,7.15
2022-08-19T21:47:15.889Z,5.32
2022-08-19T21:49:42.602Z,5.68
2022-08-19T21:52:09.361Z,5.50
2022-08-19T21:54:37.633Z,5.30
2022-08-19T21:57:10.157Z,5.00
2022-08-19T21:59:41.314Z,5.43
2022-08-19T22:02:20.324Z,4.43
2022-08-19T22:04:48.536Z,4.43
2022-08-19T22:07:15.815Z,5.22
2022-08-19T22:09:44.597Z,4.47
2022-08-19T22:12:23.557Z,4.25
2022-08-19T22:14:52.052Z,4.90
2022-08-19T22:17:19.590Z,4.60
2022-08-19T22:19:47.354Z,5.45
2022-08-19T22:22:24.433Z,4.65
2022-08-19T22:25:00.279Z,4.60
2022-08-19T22:27:26.906Z,4.13
2022-08-19T22:29:53.644Z,4.32
2022-08-19T22:32:26.191Z,4.22
2022-08-19T22:34:56.870Z,4.18
2022-08-19T22:37:23.632Z,4.57
2022-08-19T22:39:50.432Z,4.00
2022-08-19T22:42:21.272Z,4.32
2022-08-19T22:44:48.900Z,4.75
2022-08-19T22:47:16.248Z,4.00
2022-08-19T22:49:43.345Z,4.57
2022-08-19T22:52:17.404Z,4.50
2022-08-19T22:54:49.751Z,4.63
2022-08-19T22:57:19.602Z,4.40
2022-08-19T22:59:51.459Z,4.45
2022-08-19T23:02:31.465Z,4.80
2022-08-19T23:05:02.237Z,3.83
2022-08-19T23:07:29.633Z,3.67
2022-08-19T23:09:56.316Z,4.20
2022-08-19T23:12:41.410Z,3.90
2022-08-19T23:15:10.343Z,4.55
2022-08-19T23:17:37.547Z,4.28
2022-08-19T23:20:08.506Z,3.90
2022-08-19T23:22:38.189Z,3.58
2022-08-19T23:25:07.187Z,3.83
2022-08-19T23:27:52.367Z,4.90
2022-08-19T23:30:28.229Z,3.92
2022-08-19T23:33:10.878Z,4.25
2022-08-19T23:35:41.178Z,4.13
2022-08-19T23:38:09.592Z,4.63
2022-08-19T23:40:38.910Z,4.38
2022-08-19T23:43:08.006Z,4.72
2022-08-19T23:45:41.023Z,4.15
2022-08-19T23:48:18.130Z,4.80
2022-08-19T23:50:46.483Z,5.55
2022-08-19T23:53:13.660Z,4.60
2022-08-19T23:55:43.308Z,5.07
2022-08-19T23:58:10.996Z,4.45
